createdAt,value
2023-08-29T00:01:48.386Z,43.99
2023-08-29T00:04:15.839Z,41.97
2023-08-29T00:06:43.049Z,40.81
2023-08-29T00:09:10.717Z,39.34
2023-08-29T00:11:38.346Z,37.71
2023-08-29T00:14:06.603Z,36.91
2023-08-29T00:16:33.978Z,36.20
2023-08-29T00:19:01.515Z,34.93
2023-08-29T00:21:28.751Z,34.51
2023-08-29T00:23:56.381Z,33.48
2023-08-29T00:26:23.501Z,32.63
2023-08-29T00:28:54.202Z,31.83
2023-08-29T00:31:22.084Z,31.50
2023-08-29T00:33:49.822Z,30.78
2023-08-29T00:36:17.484Z,30.51
2023-08-29T00:38:44.997Z,29.16
2023-08-29T00:41:12.713Z,29.04
2023-08-29T00:43:40.067Z,28.55
2023-08-29T00:46:10.377Z,27.68
2023-08-29T00:48:39.273Z,27.50
2023-08-29T00:51:06.726Z,26.97
2023-08-29T00:53:34.249Z,26.53
2023-08-29T00:56:01.668Z,26.19
2023-08-29T00:58:29.502Z,26.06
2023-08-29T01:00:57.036Z,25.22
2023-08-29T01:03:24.595Z,25.09
2023-08-29T01:05:52.209Z,24.58
2023-08-29T01:08:19.650Z,23.90
2023-08-29T01:11:23.489Z,23.53
2023-08-29T01:14:44.042Z,22.58
2023-08-29T01:17:23.657Z,21.73
2023-08-29T01:19:52.827Z,21.26
2023-08-29T01:22:41.234Z,21.04
2023-08-29T01:25:11.173Z,20.27
2023-08-29T01:27:39.068Z,19.79
2023-08-29T01:30:07.469Z,19.75
2023-08-29T01:32:35.084Z,19.48
2023-08-29T01:35:05.816Z,19.27
2023-08-29T01:37:33.011Z,17.94
2023-08-29T01:40:00.945Z,18.46
2023-08-29T01:42:28.873Z,18.56
2023-08-29T01:44:56.144Z,18.13
2023-08-29T01:47:23.620Z,19.21
2023-08-29T01:49:52.410Z,20.39
2023-08-29T01:52:19.770Z,22.43
2023-08-29T01:54:46.940Z,23.01
2023-08-29T01:57:14.479Z,22.68
2023-08-29T01:59:41.927Z,23.70
2023-08-29T02:02:09.257Z,24.92
2023-08-29T02:04:36.843Z,25.03
2023-08-29T02:07:06.666Z,23.49
2023-08-29T02:09:34.175Z,24.16
2023-08-29T02:12:03.398Z,25.14
2023-08-29T02:14:30.708Z,26.35
2023-08-29T02:16:58.464Z,28.80
2023-08-29T02:19:27.174Z,28.94
2023-08-29T02:21:54.905Z,30.19
2023-08-29T02:24:23.230Z,31.98
2023-08-29T02:26:50.733Z,34.42
2023-08-29T02:29:18.413Z,36.16
2023-08-29T02:31:46.632Z,37.64
2023-08-29T02:34:13.945Z,38.86
2023-08-29T02:36:41.986Z,39.79
2023-08-29T02:39:09.536Z,40.01
2023-08-29T02:41:37.974Z,40.43
2023-08-29T02:44:05.805Z,41.40
2023-08-29T02:46:33.431Z,42.76
2023-08-29T02:49:01.017Z,43.82
2023-08-29T02:51:28.620Z,43.99
2023-08-29T02:53:56.766Z,44.30
2023-08-29T02:56:24.218Z,44.11
2023-08-29T02:58:52.129Z,43.60
2023-08-29T03:01:20.467Z,43.16
2023-08-29T03:03:48.703Z,42.76
2023-08-29T03:06:15.937Z,41.72
2023-08-29T03:08:43.624Z,42.10
2023-08-29T03:11:10.879Z,41.56
2023-08-29T03:13:38.451Z,40.62
2023-08-29T03:16:16.857Z,41.38
2023-08-29T03:18:46.915Z,41.99
2023-08-29T03:21:14.510Z,42.09
2023-08-29T03:23:42.139Z,42.71
2023-08-29T03:26:11.600Z,42.98
2023-08-29T03:28:41.857Z,42.24
2023-08-29T03:31:10.266Z,41.57
2023-08-29T03:33:42.093Z,41.22
2023-08-29T03:36:10.117Z,42.37
2023-08-29T03:38:41.277Z,41.95
2023-08-29T03:41:09.268Z,41.84
2023-08-29T03:43:37.464Z,41.77
2023-08-29T03:46:06.047Z,42.49
2023-08-29T03:48:34.939Z,42.94
2023-08-29T03:51:11.745Z,42.96
2023-08-29T03:53:39.008Z,42.55
2023-08-29T03:56:09.958Z,42.31
2023-08-29T03:58:37.204Z,42.53
2023-08-29T04:01:05.322Z,42.58
2023-08-29T04:03:33.035Z,43.00
2023-08-29T04:06:02.799Z,43.29
2023-08-29T04:08:30.398Z,42.85
2023-08-29T04:10:57.888Z,42.51
2023-08-29T04:13:25.730Z,42.00
2023-08-29T04:15:54.123Z,41.85
2023-08-29T04:18:21.651Z,41.14
2023-08-29T04:20:49.237Z,41.34
2023-08-29T04:23:17.862Z,41.84
2023-08-29T04:25:45.917Z,42.55
2023-08-29T04:28:15.427Z,43.52
2023-08-29T04:30:42.977Z,43.39
2023-08-29T04:33:10.917Z,43.14
2023-08-29T04:35:38.311Z,42.33
2023-08-29T04:38:06.232Z,42.84
2023-08-29T04:40:33.817Z,43.29
2023-08-29T04:43:01.451Z,43.73
2023-08-29T04:45:28.739Z,43.45
2023-08-29T04:47:56.446Z,43.98
2023-08-29T04:50:26.486Z,42.94
2023-08-29T04:52:54.584Z,42.98
2023-08-29T04:55:22.041Z,43.17
2023-08-29T04:57:50.103Z,42.35
2023-08-29T05:00:18.246Z,42.91
2023-08-29T05:02:45.972Z,42.31
2023-08-29T05:05:13.451Z,42.98
2023-08-29T05:07:40.712Z,42.08
2023-08-29T05:10:09.764Z,42.35
2023-08-29T05:12:37.409Z,42.32
2023-08-29T05:15:06.074Z,42.04
2023-08-29T05:17:33.937Z,42.47
2023-08-29T05:20:01.221Z,42.01
2023-08-29T05:22:28.541Z,42.49
2023-08-29T05:24:56.140Z,42.36
2023-08-29T05:27:23.785Z,41.87
2023-08-29T05:29:51.085Z,42.86
2023-08-29T05:32:18.546Z,42.14
2023-08-29T05:34:45.930Z,42.00
2023-08-29T05:37:13.416Z,41.43
2023-08-29T05:39:41.519Z,41.82
2023-08-29T05:42:09.145Z,41.55
2023-08-29T05:44:37.070Z,41.64
2023-08-29T05:47:04.450Z,40.96
2023-08-29T05:49:32.343Z,41.24
2023-08-29T05:51:59.703Z,40.57
2023-08-29T05:54:28.102Z,41.07
2023-08-29T05:56:55.347Z,40.71
2023-08-29T05:59:22.652Z,38.80
2023-08-29T06:01:50.091Z,39.00
2023-08-29T06:04:17.554Z,38.95
2023-08-29T06:06:45.206Z,38.67
2023-08-29T06:09:12.885Z,39.10
2023-08-29T06:11:41.029Z,39.01
2023-08-29T06:14:08.707Z,39.03
2023-08-29T06:16:36.412Z,39.28
2023-08-29T06:19:04.156Z,39.17
2023-08-29T06:21:31.331Z,38.72
2023-08-29T06:23:58.612Z,37.98
2023-08-29T06:26:26.160Z,38.45
2023-08-29T06:28:53.669Z,38.13
2023-08-29T06:31:21.604Z,38.02
2023-08-29T06:33:49.006Z,38.36
2023-08-29T06:36:17.158Z,37.91
2023-08-29T06:38:44.360Z,37.71
2023-08-29T06:41:12.237Z,36.81
2023-08-29T06:43:39.863Z,36.83
2023-08-29T06:46:07.327Z,36.90
2023-08-29T06:48:34.911Z,37.55
2023-08-29T06:51:03.199Z,37.53
2023-08-29T06:53:30.780Z,38.04
2023-08-29T06:55:58.374Z,36.92
2023-08-29T06:58:27.155Z,37.85
2023-08-29T07:00:54.732Z,38.06
2023-08-29T07:03:22.108Z,38.38
2023-08-29T07:05:49.540Z,38.57
2023-08-29T07:08:17.231Z,39.04
2023-08-29T07:10:45.040Z,39.07
2023-08-29T07:13:12.700Z,39.36
2023-08-29T07:15:40.229Z,38.09
2023-08-29T07:18:07.721Z,38.05
2023-08-29T07:20:35.554Z,39.29
2023-08-29T07:23:03.634Z,38.80
2023-08-29T07:25:42.449Z,38.57
2023-08-29T07:28:14.644Z,37.71
2023-08-29T07:30:48.730Z,37.44
2023-08-29T07:33:16.452Z,36.52
2023-08-29T07:35:43.899Z,37.01
2023-08-29T07:38:11.194Z,36.79
2023-08-29T07:40:38.752Z,37.89
2023-08-29T07:43:07.764Z,38.14
2023-08-29T07:45:35.867Z,38.30
2023-08-29T07:48:03.958Z,37.98
2023-08-29T07:50:31.785Z,37.87
2023-08-29T07:52:59.442Z,36.99
2023-08-29T07:55:27.291Z,37.61
2023-08-29T07:57:54.571Z,37.54
2023-08-29T08:00:22.285Z,37.22
2023-08-29T08:02:50.026Z,37.62
2023-08-29T08:05:17.947Z,37.03
2023-08-29T08:07:45.881Z,37.00
2023-08-29T08:10:14.034Z,37.20
2023-08-29T08:12:41.594Z,37.85
2023-08-29T08:15:09.577Z,37.92
2023-08-29T08:17:37.601Z,37.62
2023-08-29T08:20:13.100Z,37.06
2023-08-29T08:22:41.383Z,36.37
2023-08-29T08:25:11.018Z,36.44
2023-08-29T08:27:41.060Z,36.50
2023-08-29T08:30:09.380Z,36.23
2023-08-29T08:32:37.183Z,36.32
2023-08-29T08:35:08.444Z,36.19
2023-08-29T08:37:37.100Z,34.74
2023-08-29T08:40:11.788Z,34.24
2023-08-29T08:42:42.223Z,33.39
2023-08-29T08:45:13.008Z,33.06
2023-08-29T08:47:40.701Z,33.23
2023-08-29T08:50:09.470Z,33.79
2023-08-29T08:52:39.499Z,34.25
2023-08-29T08:55:07.678Z,35.50
2023-08-29T08:57:35.278Z,35.07
2023-08-29T09:00:03.715Z,36.06
2023-08-29T09:02:31.316Z,36.66
2023-08-29T09:05:01.860Z,37.03
2023-08-29T09:07:29.149Z,37.40
2023-08-29T09:10:12.773Z,36.98
2023-08-29T09:12:50.884Z,36.84
2023-08-29T09:15:19.993Z,35.79
2023-08-29T09:17:51.332Z,35.43
2023-08-29T09:20:19.164Z,34.92
2023-08-29T09:22:46.704Z,35.17
2023-08-29T09:25:14.531Z,35.83
2023-08-29T09:27:48.858Z,35.59
2023-08-29T09:30:17.445Z,34.82
2023-08-29T09:32:49.730Z,34.18
2023-08-29T09:35:19.884Z,34.27
2023-08-29T09:37:54.204Z,34.37
2023-08-29T09:40:38.265Z,34.57
2023-08-29T09:43:07.454Z,34.83
2023-08-29T09:45:36.412Z,34.97
2023-08-29T09:48:07.338Z,35.13
2023-08-29T09:50:36.357Z,35.67
2023-08-29T09:53:04.171Z,35.79
2023-08-29T09:55:34.273Z,35.94
2023-08-29T09:58:02.600Z,36.52
2023-08-29T10:00:30.182Z,36.96
2023-08-29T10:02:57.842Z,37.80
2023-08-29T10:05:26.934Z,38.46
2023-08-29T10:07:57.660Z,38.96
2023-08-29T10:10:25.267Z,39.23
2023-08-29T10:12:53.058Z,39.84
2023-08-29T10:15:21.023Z,39.46
2023-08-29T10:17:48.781Z,39.96
2023-08-29T10:20:16.302Z,39.75
2023-08-29T10:22:49.409Z,39.66
2023-08-29T10:25:19.494Z,39.54
2023-08-29T10:27:46.692Z,40.05
2023-08-29T10:30:15.808Z,40.45
2023-08-29T10:32:44.395Z,40.54
2023-08-29T10:35:19.618Z,40.81
2023-08-29T10:37:53.645Z,41.12
2023-08-29T10:40:21.983Z,41.44
2023-08-29T10:42:58.281Z,41.38
2023-08-29T10:45:48.929Z,41.77
2023-08-29T10:48:31.985Z,42.39
2023-08-29T10:51:11.805Z,42.42
2023-08-29T10:53:39.604Z,42.78
2023-08-29T10:56:09.005Z,42.97
2023-08-29T10:58:40.270Z,43.67
2023-08-29T11:01:08.879Z,44.35
2023-08-29T11:03:43.351Z,44.97
2023-08-29T11:06:11.249Z,45.61
2023-08-29T11:08:38.557Z,45.65
2023-08-29T11:11:20.146Z,46.62
2023-08-29T11:14:14.004Z,47.35
2023-08-29T11:17:13.415Z,47.63
2023-08-29T11:19:43.051Z,48.36
2023-08-29T11:22:13.122Z,48.46
2023-08-29T11:24:40.977Z,48.59
2023-08-29T11:27:09.250Z,48.78
2023-08-29T11:29:37.612Z,49.08
2023-08-29T11:32:06.158Z,49.88
2023-08-29T11:34:36.322Z,50.75
2023-08-29T11:37:05.215Z,52.63
2023-08-29T11:39:36.121Z,53.42
2023-08-29T11:42:21.349Z,54.44
2023-08-29T11:45:36.871Z,55.12
2023-08-29T11:47:42.286Z,55.94
2023-08-29T11:50:11.979Z,56.80
2023-08-29T11:52:39.931Z,58.86
2023-08-29T11:55:09.453Z,59.63
2023-08-29T11:57:38.128Z,58.83
2023-08-29T12:00:10.486Z,57.08
2023-08-29T12:02:37.907Z,55.03
2023-08-29T12:05:08.867Z,54.25
2023-08-29T12:07:36.263Z,54.65
2023-08-29T12:10:10.634Z,53.19
2023-08-29T12:12:40.623Z,54.15
2023-08-29T12:15:11.990Z,54.43
2023-08-29T12:17:42.004Z,54.52
2023-08-29T12:20:15.814Z,56.79
2023-08-29T12:22:48.244Z,56.23
2023-08-29T12:25:16.493Z,56.00
2023-08-29T12:27:47.355Z,56.49
2023-08-29T12:30:15.725Z,56.52
2023-08-29T12:32:50.249Z,56.70
2023-08-29T12:35:18.721Z,56.72
2023-08-29T12:37:46.062Z,55.70
2023-08-29T12:40:15.354Z,55.58
2023-08-29T12:42:45.078Z,55.79
2023-08-29T12:45:12.542Z,56.30
2023-08-29T12:47:40.175Z,55.98
2023-08-29T12:50:08.782Z,55.89
2023-08-29T12:52:36.643Z,55.41
2023-08-29T12:55:04.373Z,56.02
2023-08-29T12:57:32.192Z,54.92
2023-08-29T12:59:59.684Z,53.92
2023-08-29T13:02:27.167Z,54.72
2023-08-29T13:04:55.317Z,55.01
2023-08-29T13:07:23.061Z,55.59
2023-08-29T13:09:52.600Z,56.50
2023-08-29T13:12:29.060Z,56.74
2023-08-29T13:14:56.824Z,57.61
2023-08-29T13:17:24.797Z,57.51
2023-08-29T13:19:52.051Z,57.83
2023-08-29T13:22:19.496Z,57.64
2023-08-29T13:24:47.227Z,57.76
2023-08-29T13:27:15.103Z,58.10
2023-08-29T13:29:43.085Z,58.91
2023-08-29T13:32:10.601Z,60.43
2023-08-29T13:34:38.729Z,61.28
2023-08-29T13:37:06.606Z,62.78
2023-08-29T13:39:33.876Z,63.45
2023-08-29T13:42:01.780Z,64.74
2023-08-29T13:44:29.374Z,66.13
2023-08-29T13:46:57.195Z,67.20
2023-08-29T13:49:24.286Z,69.97
2023-08-29T13:51:52.670Z,71.49
2023-08-29T13:54:20.904Z,73.00
2023-08-29T13:56:48.832Z,74.44
2023-08-29T13:59:16.355Z,74.89
2023-08-29T14:01:43.752Z,75.86
2023-08-29T14:04:11.252Z,74.36
2023-08-29T14:06:39.011Z,75.30
2023-08-29T14:09:06.724Z,75.46
2023-08-29T14:11:34.089Z,76.98
2023-08-29T14:14:01.469Z,76.46
2023-08-29T14:16:32.829Z,76.61
2023-08-29T14:19:00.342Z,76.68
2023-08-29T14:21:28.237Z,76.75
2023-08-29T14:23:55.581Z,77.70
2023-08-29T14:26:23.452Z,77.02
2023-08-29T14:28:50.883Z,75.60
2023-08-29T14:31:25.134Z,76.02
2023-08-29T14:33:53.383Z,76.16
2023-08-29T14:36:21.940Z,75.66
2023-08-29T14:38:49.962Z,76.92
2023-08-29T14:41:17.427Z,77.89
2023-08-29T14:43:45.346Z,78.25
2023-08-29T14:46:12.627Z,78.17
2023-08-29T14:48:40.292Z,78.85
2023-08-29T14:51:07.848Z,78.18
2023-08-29T14:53:35.583Z,78.00
2023-08-29T14:56:03.413Z,77.54
2023-08-29T14:58:32.383Z,75.72
2023-08-29T15:00:59.913Z,75.57
2023-08-29T15:03:27.520Z,76.14
2023-08-29T15:05:58.493Z,76.73
2023-08-29T15:08:27.328Z,76.70
2023-08-29T15:10:54.984Z,76.93
2023-08-29T15:13:23.416Z,76.88
2023-08-29T15:15:51.186Z,76.66
2023-08-29T15:18:18.994Z,76.43
2023-08-29T15:20:46.767Z,76.67
2023-08-29T15:23:14.334Z,76.13
2023-08-29T15:25:43.156Z,75.46
2023-08-29T15:28:11.443Z,75.49
2023-08-29T15:30:38.968Z,75.52
2023-08-29T15:33:06.275Z,75.26
2023-08-29T15:35:33.484Z,74.74
2023-08-29T15:38:01.029Z,74.45
2023-08-29T15:40:28.518Z,74.54
2023-08-29T15:42:56.007Z,73.85
2023-08-29T15:45:23.347Z,74.38
2023-08-29T15:47:53.535Z,74.07
2023-08-29T15:50:21.143Z,73.92
2023-08-29T15:52:48.482Z,73.99
2023-08-29T15:55:16.348Z,73.85
2023-08-29T15:57:43.825Z,73.93
2023-08-29T16:00:15.438Z,74.05
2023-08-29T16:02:46.272Z,74.15
2023-08-29T16:05:13.959Z,74.02
2023-08-29T16:07:41.474Z,73.59
2023-08-29T16:10:14.020Z,73.77
2023-08-29T16:12:42.854Z,73.59
2023-08-29T16:15:11.085Z,73.58
2023-08-29T16:17:38.954Z,73.50
2023-08-29T16:20:12.619Z,73.62
2023-08-29T16:22:40.266Z,73.47
2023-08-29T16:25:08.193Z,73.38
2023-08-29T16:27:38.869Z,73.92
2023-08-29T16:30:08.600Z,73.51
2023-08-29T16:32:36.750Z,72.08
2023-08-29T16:35:04.628Z,71.17
2023-08-29T16:37:32.167Z,70.16
2023-08-29T16:39:59.540Z,70.19
2023-08-29T16:42:28.754Z,70.83
2023-08-29T16:44:56.139Z,70.62
2023-08-29T16:47:23.797Z,71.81
2023-08-29T16:49:51.327Z,72.12
2023-08-29T16:52:18.980Z,72.95
2023-08-29T16:54:46.776Z,73.56
2023-08-29T16:57:14.093Z,73.85
2023-08-29T17:00:01.517Z,74.00
2023-08-29T17:02:29.820Z,74.04
2023-08-29T17:04:57.600Z,73.81
2023-08-29T17:07:25.696Z,73.29
2023-08-29T17:09:52.971Z,73.41
2023-08-29T17:12:21.477Z,73.85
2023-08-29T17:14:52.471Z,73.92
2023-08-29T17:17:20.586Z,73.80
2023-08-29T17:19:48.547Z,74.34
2023-08-29T17:22:16.332Z,74.11
2023-08-29T17:24:43.872Z,74.02
2023-08-29T17:27:11.171Z,73.91
2023-08-29T17:29:38.900Z,73.76
2023-08-29T17:32:07.323Z,74.07
2023-08-29T17:34:35.324Z,73.72
2023-08-29T17:37:03.100Z,73.20
2023-08-29T17:39:30.827Z,73.07
2023-08-29T17:41:58.042Z,72.37
2023-08-29T17:44:25.413Z,72.13
2023-08-29T17:46:52.841Z,70.66
2023-08-29T17:49:20.237Z,70.32
2023-08-29T17:51:49.073Z,71.20
2023-08-29T17:54:17.208Z,71.57
2023-08-29T17:56:45.228Z,72.23
2023-08-29T17:59:12.910Z,72.93
2023-08-29T18:01:40.305Z,72.74
2023-08-29T18:04:09.037Z,72.38
2023-08-29T18:06:36.843Z,72.00
2023-08-29T18:09:05.415Z,71.45
2023-08-29T18:11:33.700Z,71.83
2023-08-29T18:14:01.942Z,72.13
2023-08-29T18:16:29.224Z,72.75
2023-08-29T18:19:00.593Z,72.54
2023-08-29T18:21:28.588Z,73.00
2023-08-29T18:23:56.770Z,72.80
2023-08-29T18:26:24.234Z,72.83
2023-08-29T18:28:51.765Z,72.37
2023-08-29T18:31:19.223Z,72.72
2023-08-29T18:33:46.591Z,72.88
2023-08-29T18:36:14.478Z,73.17
2023-08-29T18:38:41.996Z,72.59
2023-08-29T18:41:10.395Z,72.68
2023-08-29T18:43:39.882Z,72.96
2023-08-29T18:46:07.433Z,73.12
2023-08-29T18:48:35.306Z,72.91
2023-08-29T18:51:02.729Z,72.75
2023-08-29T18:53:30.215Z,72.18
2023-08-29T18:55:57.572Z,71.88
2023-08-29T18:58:24.854Z,72.13
2023-08-29T19:00:52.256Z,72.92
2023-08-29T19:03:20.072Z,72.94
2023-08-29T19:05:47.670Z,73.00
2023-08-29T19:08:14.948Z,73.61
2023-08-29T19:10:45.089Z,74.08
2023-08-29T19:13:12.955Z,73.70
2023-08-29T19:15:40.270Z,74.00
2023-08-29T19:18:08.529Z,73.70
2023-08-29T19:20:38.661Z,73.29
2023-08-29T19:23:06.540Z,73.46
2023-08-29T19:25:34.357Z,73.35
2023-08-29T19:28:01.540Z,73.29
2023-08-29T19:30:29.086Z,73.15
2023-08-29T19:33:01.638Z,72.61
2023-08-29T19:35:31.603Z,72.84
2023-08-29T19:37:59.758Z,72.67
2023-08-29T19:40:27.002Z,72.31
2023-08-29T19:42:54.789Z,72.76
2023-08-29T19:45:21.882Z,72.70
2023-08-29T19:47:49.601Z,73.00
2023-08-29T19:50:16.954Z,73.42
2023-08-29T19:52:47.505Z,73.24
2023-08-29T19:55:15.754Z,73.35
2023-08-29T19:57:43.288Z,72.69
2023-08-29T20:00:10.972Z,73.06
2023-08-29T20:02:41.160Z,72.81
2023-08-29T20:05:09.343Z,72.74
2023-08-29T20:07:36.934Z,72.74
2023-08-29T20:10:04.448Z,72.89
2023-08-29T20:12:31.934Z,73.00
2023-08-29T20:14:59.907Z,73.55
2023-08-29T20:17:27.163Z,73.97
2023-08-29T20:19:54.501Z,73.99
2023-08-29T20:22:22.333Z,73.21
2023-08-29T20:24:49.806Z,72.07
2023-08-29T20:27:17.477Z,71.34
2023-08-29T20:29:44.980Z,72.08
2023-08-29T20:32:12.309Z,72.58
2023-08-29T20:34:40.881Z,72.83
2023-08-29T20:37:09.040Z,73.37
2023-08-29T20:39:36.136Z,73.71
2023-08-29T20:42:03.850Z,73.71
2023-08-29T20:44:31.604Z,73.84
2023-08-29T20:46:58.770Z,73.75
2023-08-29T20:49:26.196Z,73.42
2023-08-29T20:51:53.537Z,73.30
2023-08-29T20:54:21.261Z,73.07
2023-08-29T20:56:48.653Z,73.09
2023-08-29T20:59:15.861Z,73.26
2023-08-29T21:01:43.164Z,73.56
2023-08-29T21:04:10.313Z,73.96
2023-08-29T21:06:39.812Z,75.05
2023-08-29T21:09:07.255Z,74.55
2023-08-29T21:11:34.833Z,73.76
2023-08-29T21:14:02.289Z,73.68
2023-08-29T21:16:29.651Z,73.73
2023-08-29T21:18:57.680Z,73.99
2023-08-29T21:21:25.352Z,73.76
2023-08-29T21:23:52.837Z,74.15
2023-08-29T21:26:20.069Z,74.36
2023-08-29T21:28:47.563Z,73.85
2023-08-29T21:31:15.743Z,73.80
2023-08-29T21:33:44.116Z,74.31
2023-08-29T21:36:11.777Z,74.27
2023-08-29T21:38:38.920Z,74.25
2023-08-29T21:41:06.669Z,74.37
2023-08-29T21:43:33.868Z,74.45
2023-08-29T21:46:01.612Z,74.36
2023-08-29T21:48:31.741Z,74.27
2023-08-29T21:50:58.963Z,74.23
2023-08-29T21:53:26.364Z,74.47
2023-08-29T21:55:53.643Z,74.40
2023-08-29T21:58:21.479Z,74.23
2023-08-29T22:00:49.457Z,74.49
2023-08-29T22:03:17.008Z,74.08
2023-08-29T22:05:44.254Z,74.41
2023-08-29T22:08:11.951Z,74.49
2023-08-29T22:10:39.526Z,73.95
2023-08-29T22:13:09.317Z,74.53
2023-08-29T22:15:37.609Z,73.77
2023-08-29T22:18:06.395Z,74.27
2023-08-29T22:20:34.186Z,74.09
2023-08-29T22:23:01.506Z,74.08
2023-08-29T22:25:28.895Z,73.79
2023-08-29T22:27:56.689Z,73.57
2023-08-29T22:30:25.521Z,72.81
2023-08-29T22:32:53.041Z,72.84
2023-08-29T22:35:20.846Z,72.87
2023-08-29T22:37:48.437Z,72.59
2023-08-29T22:40:16.061Z,72.75
2023-08-29T22:42:43.551Z,72.98
2023-08-29T22:45:11.293Z,72.64
2023-08-29T22:47:38.564Z,72.72
2023-08-29T22:50:07.182Z,72.97
2023-08-29T22:52:34.916Z,73.20
2023-08-29T22:55:05.524Z,73.59
2023-08-29T22:57:33.680Z,74.21
2023-08-29T23:00:01.190Z,74.82
2023-08-29T23:02:28.671Z,74.81
2023-08-29T23:04:56.345Z,74.63
2023-08-29T23:07:24.000Z,73.29
2023-08-29T23:09:51.306Z,73.63
2023-08-29T23:12:19.944Z,73.89
2023-08-29T23:14:47.506Z,73.50
2023-08-29T23:17:15.521Z,72.70
2023-08-29T23:19:44.881Z,73.48
2023-08-29T23:22:12.210Z,73.07
2023-08-29T23:24:39.902Z,72.60
2023-08-29T23:27:07.792Z,71.60
2023-08-29T23:29:37.529Z,71.26
2023-08-29T23:32:06.086Z,71.57
2023-08-29T23:34:33.615Z,71.29
2023-08-29T23:37:00.957Z,71.00
2023-08-29T23:39:28.461Z,71.34
2023-08-29T23:41:56.875Z,71.01
2023-08-29T23:44:24.522Z,71.29
2023-08-29T23:46:51.796Z,70.78
2023-08-29T23:49:19.200Z,70.85
2023-08-29T23:51:47.142Z,70.18
2023-08-29T23:54:14.850Z,70.16
2023-08-29T23:56:42.481Z,70.08
2023-08-29T23:59:10.215Z,69.87
